sensor_id;sensor_type;location;lat;lon;timestamp;P1;durP1;ratioP1;P2;durP2;ratioP2
19595;SDS011;9945;46.010;8.946;2023-02-28T00:01:17;5.70;;;5.30;;
19595;SDS011;9945;46.010;8.946;2023-02-28T00:03:44;6.40;;;5.83;;
19595;SDS011;9945;46.010;8.946;2023-02-28T00:06:11;6.80;;;6.30;;
19595;SDS011;9945;46.010;8.946;2023-02-28T00:08:38;6.20;;;5.40;;
19595;SDS011;9945;46.010;8.946;2023-02-28T00:11:08;5.97;;;5.13;;
19595;SDS011;9945;46.010;8.946;2023-02-28T00:13:37;5.50;;;5.10;;
19595;SDS011;9945;46.010;8.946;2023-02-28T00:16:07;6.80;;;6.20;;
19595;SDS011;9945;46.010;8.946;2023-02-28T00:18:35;6.33;;;5.90;;
19595;SDS011;9945;46.010;8.946;2023-02-28T00:21:05;6.40;;;5.90;;
19595;SDS011;9945;46.010;8.946;2023-02-28T00:23:33;6.13;;;5.63;;
19595;SDS011;9945;46.010;8.946;2023-02-28T00:26:00;6.63;;;6.00;;
19595;SDS011;9945;46.010;8.946;2023-02-28T00:28:28;6.90;;;5.93;;
19595;SDS011;9945;46.010;8.946;2023-02-28T00:30:56;6.20;;;5.60;;
19595;SDS011;9945;46.010;8.946;2023-02-28T00:33:25;6.20;;;5.70;;
19595;SDS011;9945;46.010;8.946;2023-02-28T00:35:52;5.77;;;5.37;;
19595;SDS011;9945;46.010;8.946;2023-02-28T00:38:28;5.73;;;5.33;;
19595;SDS011;9945;46.010;8.946;2023-02-28T00:40:55;5.43;;;5.03;;
19595;SDS011;9945;46.010;8.946;2023-02-28T00:43:22;5.87;;;5.47;;
19595;SDS011;9945;46.010;8.946;2023-02-28T00:45:50;6.13;;;5.63;;
19595;SDS011;9945;46.010;8.946;2023-02-28T00:48:17;6.40;;;5.90;;
19595;SDS011;9945;46.010;8.946;2023-02-28T00:50:44;6.30;;;5.70;;
19595;SDS011;9945;46.010;8.946;2023-02-28T00:53:10;5.70;;;5.30;;
19595;SDS011;9945;46.010;8.946;2023-02-28T00:55:37;6.50;;;5.90;;
19595;SDS011;9945;46.010;8.946;2023-02-28T00:58:04;6.00;;;5.50;;
19595;SDS011;9945;46.010;8.946;2023-02-28T01:00:31;6.43;;;5.87;;
19595;SDS011;9945;46.010;8.946;2023-02-28T01:02:59;6.13;;;5.63;;
19595;SDS011;9945;46.010;8.946;2023-02-28T01:05:26;6.90;;;6.20;;
19595;SDS011;9945;46.010;8.946;2023-02-28T01:07:53;6.50;;;6.00;;
19595;SDS011;9945;46.010;8.946;2023-02-28T01:10:20;6.70;;;6.20;;
19595;SDS011;9945;46.010;8.946;2023-02-28T01:12:46;6.67;;;6.10;;
19595;SDS011;9945;46.010;8.946;2023-02-28T01:15:13;5.77;;;5.33;;
19595;SDS011;9945;46.010;8.946;2023-02-28T01:17:40;6.20;;;5.80;;
19595;SDS011;9945;46.010;8.946;2023-02-28T01:20:09;6.63;;;5.87;;
19595;SDS011;9945;46.010;8.946;2023-02-28T01:22:37;6.93;;;6.00;;
19595;SDS011;9945;46.010;8.946;2023-02-28T01:25:04;6.70;;;6.30;;
19595;SDS011;9945;46.010;8.946;2023-02-28T01:27:31;6.97;;;6.40;;
19595;SDS011;9945;46.010;8.946;2023-02-28T01:29:58;6.63;;;6.03;;
19595;SDS011;9945;46.010;8.946;2023-02-28T01:32:25;6.33;;;5.93;;
19595;SDS011;9945;46.010;8.946;2023-02-28T01:34:51;7.17;;;6.67;;
19595;SDS011;9945;46.010;8.946;2023-02-28T01:37:19;6.27;;;5.80;;
19595;SDS011;9945;46.010;8.946;2023-02-28T01:39:46;6.03;;;5.53;;
19595;SDS011;9945;46.010;8.946;2023-02-28T01:42:13;6.57;;;5.97;;
19595;SDS011;9945;46.010;8.946;2023-02-28T01:45:00;6.80;;;6.20;;
19595;SDS011;9945;46.010;8.946;2023-02-28T01:47:30;6.70;;;6.10;;
19595;SDS011;9945;46.010;8.946;2023-02-28T01:49:59;6.83;;;6.37;;
19595;SDS011;9945;46.010;8.946;2023-02-28T01:52:29;7.53;;;6.93;;
19595;SDS011;9945;46.010;8.946;2023-02-28T01:54:59;7.17;;;6.57;;
19595;SDS011;9945;46.010;8.946;2023-02-28T01:57:28;6.57;;;6.07;;
19595;SDS011;9945;46.010;8.946;2023-02-28T02:00:04;6.97;;;6.40;;
19595;SDS011;9945;46.010;8.946;2023-02-28T02:02:34;7.27;;;6.67;;
19595;SDS011;9945;46.010;8.946;2023-02-28T02:05:04;6.73;;;6.17;;
19595;SDS011;9945;46.010;8.946;2023-02-28T02:07:35;7.63;;;7.03;;
19595;SDS011;9945;46.010;8.946;2023-02-28T02:10:06;6.93;;;6.43;;
19595;SDS011;9945;46.010;8.946;2023-02-28T02:13:00;6.70;;;6.30;;
19595;SDS011;9945;46.010;8.946;2023-02-28T02:15:41;6.67;;;6.17;;
19595;SDS011;9945;46.010;8.946;2023-02-28T02:18:17;6.27;;;5.73;;
19595;SDS011;9945;46.010;8.946;2023-02-28T02:24:02;7.43;;;6.83;;
19595;SDS011;9945;46.010;8.946;2023-02-28T02:26:56;8.03;;;7.23;;
19595;SDS011;9945;46.010;8.946;2023-02-28T02:29:44;8.00;;;7.30;;
19595;SDS011;9945;46.010;8.946;2023-02-28T02:35:37;7.27;;;6.70;;
19595;SDS011;9945;46.010;8.946;2023-02-28T02:38:10;10.07;;;6.70;;
19595;SDS011;9945;46.010;8.946;2023-02-28T02:40:46;7.53;;;7.03;;
19595;SDS011;9945;46.010;8.946;2023-02-28T02:43:22;7.70;;;7.10;;
19595;SDS011;9945;46.010;8.946;2023-02-28T02:45:55;7.77;;;7.17;;
19595;SDS011;9945;46.010;8.946;2023-02-28T02:48:26;8.30;;;7.60;;
19595;SDS011;9945;46.010;8.946;2023-02-28T02:50:58;8.30;;;7.60;;
19595;SDS011;9945;46.010;8.946;2023-02-28T02:53:29;8.33;;;7.70;;
19595;SDS011;9945;46.010;8.946;2023-02-28T02:56:01;8.10;;;7.40;;
19595;SDS011;9945;46.010;8.946;2023-02-28T02:58:31;8.57;;;7.77;;
19595;SDS011;9945;46.010;8.946;2023-02-28T03:01:01;7.80;;;7.20;;
19595;SDS011;9945;46.010;8.946;2023-02-28T03:03:30;6.97;;;6.47;;
19595;SDS011;9945;46.010;8.946;2023-02-28T03:06:00;8.17;;;7.37;;
19595;SDS011;9945;46.010;8.946;2023-02-28T03:08:29;7.93;;;7.23;;
19595;SDS011;9945;46.010;8.946;2023-02-28T03:11:01;7.67;;;7.07;;
19595;SDS011;9945;46.010;8.946;2023-02-28T03:13:37;6.93;;;6.43;;
19595;SDS011;9945;46.010;8.946;2023-02-28T03:22:07;7.23;;;6.57;;
19595;SDS011;9945;46.010;8.946;2023-02-28T03:24:43;8.10;;;7.50;;
19595;SDS011;9945;46.010;8.946;2023-02-28T03:27:16;7.07;;;6.50;;
19595;SDS011;9945;46.010;8.946;2023-02-28T03:29:50;7.60;;;7.00;;
19595;SDS011;9945;46.010;8.946;2023-02-28T03:32:24;7.90;;;7.30;;
19595;SDS011;9945;46.010;8.946;2023-02-28T03:34:55;7.93;;;7.10;;
19595;SDS011;9945;46.010;8.946;2023-02-28T03:37:31;9.10;;;8.07;;
19595;SDS011;9945;46.010;8.946;2023-02-28T03:40:02;8.33;;;7.63;;
19595;SDS011;9945;46.010;8.946;2023-02-28T03:42:36;7.80;;;7.20;;
19595;SDS011;9945;46.010;8.946;2023-02-28T03:45:09;7.20;;;6.70;;
19595;SDS011;9945;46.010;8.946;2023-02-28T03:47:40;8.13;;;7.53;;
19595;SDS011;9945;46.010;8.946;2023-02-28T03:50:14;7.30;;;6.60;;
19595;SDS011;9945;46.010;8.946;2023-02-28T03:52:47;7.70;;;7.10;;
19595;SDS011;9945;46.010;8.946;2023-02-28T03:55:17;7.70;;;7.03;;
19595;SDS011;9945;46.010;8.946;2023-02-28T03:57:48;8.57;;;7.87;;
19595;SDS011;9945;46.010;8.946;2023-02-28T04:00:25;7.77;;;7.17;;
19595;SDS011;9945;46.010;8.946;2023-02-28T04:02:54;7.60;;;7.00;;
19595;SDS011;9945;46.010;8.946;2023-02-28T04:05:21;9.03;;;8.13;;
19595;SDS011;9945;46.010;8.946;2023-02-28T04:07:50;7.17;;;6.67;;
19595;SDS011;9945;46.010;8.946;2023-02-28T04:10:17;9.40;;;8.67;;
19595;SDS011;9945;46.010;8.946;2023-02-28T04:12:44;8.77;;;7.60;;
19595;SDS011;9945;46.010;8.946;2023-02-28T04:15:11;8.47;;;7.73;;
19595;SDS011;9945;46.010;8.946;2023-02-28T04:17:38;9.37;;;8.20;;
19595;SDS011;9945;46.010;8.946;2023-02-28T04:20:05;7.60;;;7.10;;
19595;SDS011;9945;46.010;8.946;2023-02-28T04:22:35;7.60;;;7.00;;
19595;SDS011;9945;46.010;8.946;2023-02-28T04:25:05;7.77;;;7.27;;
19595;SDS011;9945;46.010;8.946;2023-02-28T04:27:32;7.83;;;7.23;;
19595;SDS011;9945;46.010;8.946;2023-02-28T04:30:00;8.33;;;7.67;;
19595;SDS011;9945;46.010;8.946;2023-02-28T04:32:26;7.33;;;6.73;;
19595;SDS011;9945;46.010;8.946;2023-02-28T04:34:53;7.27;;;6.77;;
19595;SDS011;9945;46.010;8.946;2023-02-28T04:37:20;8.47;;;7.77;;
19595;SDS011;9945;46.010;8.946;2023-02-28T04:39:52;8.10;;;7.60;;
19595;SDS011;9945;46.010;8.946;2023-02-28T04:42:21;8.47;;;7.77;;
19595;SDS011;9945;46.010;8.946;2023-02-28T04:44:47;8.03;;;7.33;;
19595;SDS011;9945;46.010;8.946;2023-02-28T04:47:14;8.23;;;7.57;;
19595;SDS011;9945;46.010;8.946;2023-02-28T04:49:41;8.27;;;7.67;;
19595;SDS011;9945;46.010;8.946;2023-02-28T04:52:08;8.07;;;7.53;;
19595;SDS011;9945;46.010;8.946;2023-02-28T04:54:35;8.70;;;8.00;;
19595;SDS011;9945;46.010;8.946;2023-02-28T04:57:03;8.03;;;7.40;;
19595;SDS011;9945;46.010;8.946;2023-02-28T04:59:32;8.50;;;7.77;;
19595;SDS011;9945;46.010;8.946;2023-02-28T05:01:59;7.73;;;7.20;;
19595;SDS011;9945;46.010;8.946;2023-02-28T05:04:31;8.57;;;7.87;;
19595;SDS011;9945;46.010;8.946;2023-02-28T05:06:59;8.87;;;8.17;;
19595;SDS011;9945;46.010;8.946;2023-02-28T05:09:26;8.00;;;7.40;;
19595;SDS011;9945;46.010;8.946;2023-02-28T05:11:54;8.73;;;8.03;;
19595;SDS011;9945;46.010;8.946;2023-02-28T05:14:21;8.70;;;7.93;;
19595;SDS011;9945;46.010;8.946;2023-02-28T05:16:49;8.10;;;7.50;;
19595;SDS011;9945;46.010;8.946;2023-02-28T05:19:16;8.73;;;8.03;;
19595;SDS011;9945;46.010;8.946;2023-02-28T05:21:48;8.10;;;7.50;;
19595;SDS011;9945;46.010;8.946;2023-02-28T05:24:17;9.20;;;8.50;;
19595;SDS011;9945;46.010;8.946;2023-02-28T05:26:47;9.10;;;8.30;;
19595;SDS011;9945;46.010;8.946;2023-02-28T05:29:16;9.23;;;8.43;;
19595;SDS011;9945;46.010;8.946;2023-02-28T05:31:43;8.83;;;8.00;;
19595;SDS011;9945;46.010;8.946;2023-02-28T05:34:11;9.13;;;8.40;;
19595;SDS011;9945;46.010;8.946;2023-02-28T05:36:40;9.17;;;8.47;;
19595;SDS011;9945;46.010;8.946;2023-02-28T05:39:07;9.00;;;8.40;;
19595;SDS011;9945;46.010;8.946;2023-02-28T05:41:38;8.47;;;7.83;;
19595;SDS011;9945;46.010;8.946;2023-02-28T05:44:06;8.40;;;7.80;;
19595;SDS011;9945;46.010;8.946;2023-02-28T05:46:33;8.87;;;8.17;;
19595;SDS011;9945;46.010;8.946;2023-02-28T05:49:00;8.93;;;8.23;;
19595;SDS011;9945;46.010;8.946;2023-02-28T05:51:28;8.73;;;8.03;;
19595;SDS011;9945;46.010;8.946;2023-02-28T05:53:58;8.37;;;7.77;;
19595;SDS011;9945;46.010;8.946;2023-02-28T05:56:26;8.53;;;7.73;;
19595;SDS011;9945;46.010;8.946;2023-02-28T05:58:53;9.27;;;8.57;;
19595;SDS011;9945;46.010;8.946;2023-02-28T06:01:21;9.17;;;8.37;;
19595;SDS011;9945;46.010;8.946;2023-02-28T06:03:50;8.67;;;7.97;;
19595;SDS011;9945;46.010;8.946;2023-02-28T06:06:17;8.53;;;7.93;;
19595;SDS011;9945;46.010;8.946;2023-02-28T06:08:45;8.70;;;8.00;;
19595;SDS011;9945;46.010;8.946;2023-02-28T06:11:12;10.33;;;9.43;;
19595;SDS011;9945;46.010;8.946;2023-02-28T06:13:39;9.30;;;8.40;;
19595;SDS011;9945;46.010;8.946;2023-02-28T06:16:06;9.43;;;8.53;;
19595;SDS011;9945;46.010;8.946;2023-02-28T06:18:34;8.50;;;7.80;;
19595;SDS011;9945;46.010;8.946;2023-02-28T06:21:01;8.93;;;8.13;;
19595;SDS011;9945;46.010;8.946;2023-02-28T06:23:27;9.33;;;8.40;;
19595;SDS011;9945;46.010;8.946;2023-02-28T06:25:56;9.97;;;9.17;;
19595;SDS011;9945;46.010;8.946;2023-02-28T06:28:23;9.90;;;8.87;;
19595;SDS011;9945;46.010;8.946;2023-02-28T06:30:51;9.13;;;8.33;;
19595;SDS011;9945;46.010;8.946;2023-02-28T06:33:18;9.93;;;9.17;;
19595;SDS011;9945;46.010;8.946;2023-02-28T06:38:13;9.53;;;8.73;;
19595;SDS011;9945;46.010;8.946;2023-02-28T06:40:39;10.43;;;9.53;;
19595;SDS011;9945;46.010;8.946;2023-02-28T06:43:08;9.83;;;8.83;;
19595;SDS011;9945;46.010;8.946;2023-02-28T06:45:36;10.20;;;9.40;;
19595;SDS011;9945;46.010;8.946;2023-02-28T06:48:03;10.43;;;9.53;;
19595;SDS011;9945;46.010;8.946;2023-02-28T06:50:31;10.67;;;9.47;;
19595;SDS011;9945;46.010;8.946;2023-02-28T06:52:58;9.47;;;8.67;;
19595;SDS011;9945;46.010;8.946;2023-02-28T06:55:25;10.50;;;9.60;;
19595;SDS011;9945;46.010;8.946;2023-02-28T06:57:51;10.77;;;9.83;;
19595;SDS011;9945;46.010;8.946;2023-02-28T07:00:21;11.00;;;10.00;;
19595;SDS011;9945;46.010;8.946;2023-02-28T07:02:48;10.67;;;9.77;;
19595;SDS011;9945;46.010;8.946;2023-02-28T07:05:15;11.17;;;9.43;;
19595;SDS011;9945;46.010;8.946;2023-02-28T07:07:42;10.60;;;9.70;;
19595;SDS011;9945;46.010;8.946;2023-02-28T07:10:11;11.70;;;10.50;;
19595;SDS011;9945;46.010;8.946;2023-02-28T07:12:40;11.20;;;10.30;;
19595;SDS011;9945;46.010;8.946;2023-02-28T07:15:09;10.30;;;9.30;;
19595;SDS011;9945;46.010;8.946;2023-02-28T07:17:37;11.03;;;10.03;;
19595;SDS011;9945;46.010;8.946;2023-02-28T07:20:04;11.43;;;10.47;;
19595;SDS011;9945;46.010;8.946;2023-02-28T07:22:32;11.30;;;10.30;;
19595;SDS011;9945;46.010;8.946;2023-02-28T07:24:59;11.10;;;10.10;;
19595;SDS011;9945;46.010;8.946;2023-02-28T07:27:26;11.13;;;10.03;;
19595;SDS011;9945;46.010;8.946;2023-02-28T07:29:53;11.10;;;10.10;;
19595;SDS011;9945;46.010;8.946;2023-02-28T07:32:20;13.57;;;10.83;;
19595;SDS011;9945;46.010;8.946;2023-02-28T07:34:49;11.00;;;10.10;;
19595;SDS011;9945;46.010;8.946;2023-02-28T07:37:16;11.73;;;10.63;;
19595;SDS011;9945;46.010;8.946;2023-02-28T07:39:43;11.43;;;10.43;;
19595;SDS011;9945;46.010;8.946;2023-02-28T07:42:09;11.17;;;10.13;;
19595;SDS011;9945;46.010;8.946;2023-02-28T07:44:37;12.97;;;10.90;;
19595;SDS011;9945;46.010;8.946;2023-02-28T07:47:07;12.30;;;11.00;;
19595;SDS011;9945;46.010;8.946;2023-02-28T07:49:35;12.50;;;11.33;;
19595;SDS011;9945;46.010;8.946;2023-02-28T07:52:03;11.87;;;10.70;;
19595;SDS011;9945;46.010;8.946;2023-02-28T07:54:31;11.73;;;10.63;;
19595;SDS011;9945;46.010;8.946;2023-02-28T07:56:58;12.43;;;11.13;;
19595;SDS011;9945;46.010;8.946;2023-02-28T07:59:25;11.70;;;10.60;;
19595;SDS011;9945;46.010;8.946;2023-02-28T08:01:52;12.43;;;11.20;;
19595;SDS011;9945;46.010;8.946;2023-02-28T08:04:19;15.27;;;12.13;;
19595;SDS011;9945;46.010;8.946;2023-02-28T08:06:46;12.97;;;11.73;;
19595;SDS011;9945;46.010;8.946;2023-02-28T08:09:14;12.50;;;11.30;;
19595;SDS011;9945;46.010;8.946;2023-02-28T08:11:41;12.17;;;11.07;;
19595;SDS011;9945;46.010;8.946;2023-02-28T08:14:07;12.70;;;11.50;;
19595;SDS011;9945;46.010;8.946;2023-02-28T08:16:34;13.63;;;11.70;;
19595;SDS011;9945;46.010;8.946;2023-02-28T08:19:02;11.73;;;10.60;;
19595;SDS011;9945;46.010;8.946;2023-02-28T08:21:29;12.57;;;11.37;;
19595;SDS011;9945;46.010;8.946;2023-02-28T08:23:55;13.43;;;11.53;;
19595;SDS011;9945;46.010;8.946;2023-02-28T08:26:24;11.23;;;10.17;;
19595;SDS011;9945;46.010;8.946;2023-02-28T08:28:51;12.13;;;10.90;;
19595;SDS011;9945;46.010;8.946;2023-02-28T08:31:18;11.80;;;10.70;;
19595;SDS011;9945;46.010;8.946;2023-02-28T08:33:45;12.23;;;10.93;;
19595;SDS011;9945;46.010;8.946;2023-02-28T08:36:13;12.63;;;11.33;;
19595;SDS011;9945;46.010;8.946;2023-02-28T08:38:40;11.93;;;10.73;;
19595;SDS011;9945;46.010;8.946;2023-02-28T08:41:08;12.13;;;10.93;;
19595;SDS011;9945;46.010;8.946;2023-02-28T08:43:38;12.93;;;11.63;;
19595;SDS011;9945;46.010;8.946;2023-02-28T08:46:06;10.90;;;9.90;;
19595;SDS011;9945;46.010;8.946;2023-02-28T08:48:34;14.10;;;11.47;;
19595;SDS011;9945;46.010;8.946;2023-02-28T08:51:03;12.23;;;10.90;;
19595;SDS011;9945;46.010;8.946;2023-02-28T08:53:32;12.73;;;11.13;;
19595;SDS011;9945;46.010;8.946;2023-02-28T08:55:59;12.70;;;11.43;;
19595;SDS011;9945;46.010;8.946;2023-02-28T08:58:26;11.87;;;10.67;;
19595;SDS011;9945;46.010;8.946;2023-02-28T09:00:55;13.37;;;11.33;;
19595;SDS011;9945;46.010;8.946;2023-02-28T09:03:23;12.07;;;10.93;;
19595;SDS011;9945;46.010;8.946;2023-02-28T09:05:54;11.57;;;10.67;;
19595;SDS011;9945;46.010;8.946;2023-02-28T09:08:22;13.03;;;11.03;;
19595;SDS011;9945;46.010;8.946;2023-02-28T09:10:49;12.67;;;11.43;;
19595;SDS011;9945;46.010;8.946;2023-02-28T09:13:17;13.02;;;11.82;;
19595;SDS011;9945;46.010;8.946;2023-02-28T09:15:44;12.10;;;10.90;;
19595;SDS011;9945;46.010;8.946;2023-02-28T09:18:12;13.20;;;11.37;;
19595;SDS011;9945;46.010;8.946;2023-02-28T09:20:40;12.57;;;11.47;;
19595;SDS011;9945;46.010;8.946;2023-02-28T09:23:08;14.60;;;12.13;;
19595;SDS011;9945;46.010;8.946;2023-02-28T09:25:36;12.97;;;11.67;;
19595;SDS011;9945;46.010;8.946;2023-02-28T09:28:03;14.00;;;12.00;;
19595;SDS011;9945;46.010;8.946;2023-02-28T09:30:30;13.00;;;11.70;;
19595;SDS011;9945;46.010;8.946;2023-02-28T09:32:57;12.83;;;11.53;;
19595;SDS011;9945;46.010;8.946;2023-02-28T09:35:25;13.13;;;11.73;;
19595;SDS011;9945;46.010;8.946;2023-02-28T09:37:52;12.37;;;11.27;;
19595;SDS011;9945;46.010;8.946;2023-02-28T09:40:20;12.70;;;11.40;;
19595;SDS011;9945;46.010;8.946;2023-02-28T09:42:50;12.77;;;11.63;;
19595;SDS011;9945;46.010;8.946;2023-02-28T09:45:22;16.20;;;11.70;;
19595;SDS011;9945;46.010;8.946;2023-02-28T09:47:51;12.27;;;11.10;;
19595;SDS011;9945;46.010;8.946;2023-02-28T09:50:22;12.17;;;11.07;;
19595;SDS011;9945;46.010;8.946;2023-02-28T09:52:58;12.83;;;11.63;;
19595;SDS011;9945;46.010;8.946;2023-02-28T09:55:29;12.97;;;11.37;;
19595;SDS011;9945;46.010;8.946;2023-02-28T09:57:59;14.10;;;11.87;;
19595;SDS011;9945;46.010;8.946;2023-02-28T10:00:28;13.73;;;12.23;;
19595;SDS011;9945;46.010;8.946;2023-02-28T10:03:08;12.87;;;11.63;;
19595;SDS011;9945;46.010;8.946;2023-02-28T10:05:52;11.93;;;10.73;;
19595;SDS011;9945;46.010;8.946;2023-02-28T10:08:25;12.37;;;10.90;;
19595;SDS011;9945;46.010;8.946;2023-02-28T10:10:54;12.90;;;11.70;;
19595;SDS011;9945;46.010;8.946;2023-02-28T10:13:24;16.27;;;12.73;;
19595;SDS011;9945;46.010;8.946;2023-02-28T10:15:58;12.33;;;11.23;;
19595;SDS011;9945;46.010;8.946;2023-02-28T10:18:30;15.17;;;11.73;;
19595;SDS011;9945;46.010;8.946;2023-02-28T10:21:10;12.70;;;11.53;;
19595;SDS011;9945;46.010;8.946;2023-02-28T10:23:44;12.50;;;11.40;;
19595;SDS011;9945;46.010;8.946;2023-02-28T10:26:13;13.13;;;11.50;;
19595;SDS011;9945;46.010;8.946;2023-02-28T10:28:42;12.07;;;10.97;;
19595;SDS011;9945;46.010;8.946;2023-02-28T10:31:10;13.57;;;11.53;;
19595;SDS011;9945;46.010;8.946;2023-02-28T10:33:39;12.63;;;11.43;;
19595;SDS011;9945;46.010;8.946;2023-02-28T10:36:08;14.47;;;12.53;;
19595;SDS011;9945;46.010;8.946;2023-02-28T10:38:40;12.93;;;11.67;;
19595;SDS011;9945;46.010;8.946;2023-02-28T10:41:07;14.10;;;12.80;;
19595;SDS011;9945;46.010;8.946;2023-02-28T10:43:36;13.87;;;11.53;;
19595;SDS011;9945;46.010;8.946;2023-02-28T10:46:09;14.57;;;11.90;;
19595;SDS011;9945;46.010;8.946;2023-02-28T10:48:41;12.87;;;11.63;;
19595;SDS011;9945;46.010;8.946;2023-02-28T10:51:12;13.30;;;12.03;;
19595;SDS011;9945;46.010;8.946;2023-02-28T10:53:45;14.57;;;12.03;;
19595;SDS011;9945;46.010;8.946;2023-02-28T10:56:17;12.97;;;11.60;;
19595;SDS011;9945;46.010;8.946;2023-02-28T10:58:50;12.50;;;11.40;;
19595;SDS011;9945;46.010;8.946;2023-02-28T11:01:19;12.63;;;11.43;;
19595;SDS011;9945;46.010;8.946;2023-02-28T11:03:48;13.53;;;11.47;;
19595;SDS011;9945;46.010;8.946;2023-02-28T11:06:19;12.00;;;10.80;;
19595;SDS011;9945;46.010;8.946;2023-02-28T11:08:48;13.60;;;11.63;;
19595;SDS011;9945;46.010;8.946;2023-02-28T11:11:18;14.93;;;11.13;;
19595;SDS011;9945;46.010;8.946;2023-02-28T11:13:49;12.37;;;11.37;;
19595;SDS011;9945;46.010;8.946;2023-02-28T11:16:18;11.33;;;10.23;;
19595;SDS011;9945;46.010;8.946;2023-02-28T11:18:47;13.33;;;11.13;;
19595;SDS011;9945;46.010;8.946;2023-02-28T11:21:17;12.93;;;11.17;;
19595;SDS011;9945;46.010;8.946;2023-02-28T11:23:49;11.80;;;10.60;;
19595;SDS011;9945;46.010;8.946;2023-02-28T11:29:09;12.00;;;10.90;;
19595;SDS011;9945;46.010;8.946;2023-02-28T11:31:39;12.07;;;10.87;;
19595;SDS011;9945;46.010;8.946;2023-02-28T11:34:21;12.50;;;11.50;;
19595;SDS011;9945;46.010;8.946;2023-02-28T11:36:52;12.40;;;11.20;;
19595;SDS011;9945;46.010;8.946;2023-02-28T11:39:22;11.87;;;10.87;;
19595;SDS011;9945;46.010;8.946;2023-02-28T11:45:12;13.40;;;12.13;;
19595;SDS011;9945;46.010;8.946;2023-02-28T11:47:48;12.40;;;11.23;;
19595;SDS011;9945;46.010;8.946;2023-02-28T11:50:36;11.93;;;10.83;;
19595;SDS011;9945;46.010;8.946;2023-02-28T11:53:14;11.07;;;10.07;;
19595;SDS011;9945;46.010;8.946;2023-02-28T11:55:49;12.07;;;10.80;;
19595;SDS011;9945;46.010;8.946;2023-02-28T11:58:24;12.33;;;11.33;;
19595;SDS011;9945;46.010;8.946;2023-02-28T12:01:09;11.43;;;10.33;;
19595;SDS011;9945;46.010;8.946;2023-02-28T12:03:51;12.27;;;10.93;;
19595;SDS011;9945;46.010;8.946;2023-02-28T12:06:28;11.83;;;10.73;;
19595;SDS011;9945;46.010;8.946;2023-02-28T12:09:04;11.23;;;10.30;;
19595;SDS011;9945;46.010;8.946;2023-02-28T12:11:41;14.77;;;12.43;;
19595;SDS011;9945;46.010;8.946;2023-02-28T12:14:24;13.07;;;11.67;;
19595;SDS011;9945;46.010;8.946;2023-02-28T12:17:12;11.90;;;10.77;;
19595;SDS011;9945;46.010;8.946;2023-02-28T12:19:48;11.60;;;10.50;;
19595;SDS011;9945;46.010;8.946;2023-02-28T12:22:30;10.87;;;10.07;;
19595;SDS011;9945;46.010;8.946;2023-02-28T12:25:06;11.07;;;10.02;;
19595;SDS011;9945;46.010;8.946;2023-02-28T12:27:48;11.25;;;10.25;;
19595;SDS011;9945;46.010;8.946;2023-02-28T12:30:19;11.00;;;9.95;;
19595;SDS011;9945;46.010;8.946;2023-02-28T12:32:51;11.10;;;10.13;;
19595;SDS011;9945;46.010;8.946;2023-02-28T12:35:23;10.93;;;9.93;;
19595;SDS011;9945;46.010;8.946;2023-02-28T12:37:54;12.10;;;11.10;;
19595;SDS011;9945;46.010;8.946;2023-02-28T12:40:26;11.40;;;10.40;;
19595;SDS011;9945;46.010;8.946;2023-02-28T12:42:59;11.00;;;10.00;;
19595;SDS011;9945;46.010;8.946;2023-02-28T12:45:31;11.35;;;10.35;;
19595;SDS011;9945;46.010;8.946;2023-02-28T12:48:07;11.50;;;10.38;;
19595;SDS011;9945;46.010;8.946;2023-02-28T12:50:38;10.88;;;9.88;;
19595;SDS011;9945;46.010;8.946;2023-02-28T12:53:07;10.98;;;10.07;;
19595;SDS011;9945;46.010;8.946;2023-02-28T12:55:44;10.27;;;9.50;;
19595;SDS011;9945;46.010;8.946;2023-02-28T12:58:17;11.13;;;10.13;;
19595;SDS011;9945;46.010;8.946;2023-02-28T13:01:03;10.43;;;9.60;;
19595;SDS011;9945;46.010;8.946;2023-02-28T13:03:46;10.25;;;9.40;;
19595;SDS011;9945;46.010;8.946;2023-02-28T13:06:31;9.75;;;9.02;;
19595;SDS011;9945;46.010;8.946;2023-02-28T13:09:10;10.40;;;9.70;;
19595;SDS011;9945;46.010;8.946;2023-02-28T13:11:43;10.63;;;9.77;;
19595;SDS011;9945;46.010;8.946;2023-02-28T13:16:57;12.07;;;10.85;;
19595;SDS011;9945;46.010;8.946;2023-02-28T13:19:28;11.40;;;10.30;;
19595;SDS011;9945;46.010;8.946;2023-02-28T13:21:57;11.27;;;10.30;;
19595;SDS011;9945;46.010;8.946;2023-02-28T13:27:22;13.45;;;10.90;;
19595;SDS011;9945;46.010;8.946;2023-02-28T13:33:20;11.77;;;10.77;;
19595;SDS011;9945;46.010;8.946;2023-02-28T13:35:50;11.35;;;9.75;;
19595;SDS011;9945;46.010;8.946;2023-02-28T13:38:34;11.25;;;10.15;;
19595;SDS011;9945;46.010;8.946;2023-02-28T13:44:14;11.50;;;10.13;;
19595;SDS011;9945;46.010;8.946;2023-02-28T13:49:50;11.82;;;10.82;;
19595;SDS011;9945;46.010;8.946;2023-02-28T13:52:18;11.65;;;10.65;;
19595;SDS011;9945;46.010;8.946;2023-02-28T13:54:54;12.48;;;11.45;;
19595;SDS011;9945;46.010;8.946;2023-02-28T13:57:44;11.93;;;10.88;;
19595;SDS011;9945;46.010;8.946;2023-02-28T14:00:27;10.82;;;9.80;;
19595;SDS011;9945;46.010;8.946;2023-02-28T14:03:14;10.87;;;9.97;;
19595;SDS011;9945;46.010;8.946;2023-02-28T14:06:14;10.90;;;10.10;;
19595;SDS011;9945;46.010;8.946;2023-02-28T14:08:47;11.37;;;10.47;;
19595;SDS011;9945;46.010;8.946;2023-02-28T14:11:25;10.80;;;9.80;;
19595;SDS011;9945;46.010;8.946;2023-02-28T14:13:54;11.77;;;10.73;;
19595;SDS011;9945;46.010;8.946;2023-02-28T14:16:23;12.90;;;10.93;;
19595;SDS011;9945;46.010;8.946;2023-02-28T14:18:55;11.50;;;9.87;;
19595;SDS011;9945;46.010;8.946;2023-02-28T14:21:24;11.77;;;10.57;;
19595;SDS011;9945;46.010;8.946;2023-02-28T14:24:08;11.63;;;10.50;;
19595;SDS011;9945;46.010;8.946;2023-02-28T14:27:00;11.17;;;10.00;;
19595;SDS011;9945;46.010;8.946;2023-02-28T14:30:03;12.70;;;10.70;;
19595;SDS011;9945;46.010;8.946;2023-02-28T14:32:43;10.90;;;9.83;;
19595;SDS011;9945;46.010;8.946;2023-02-28T14:35:18;11.07;;;10.07;;
19595;SDS011;9945;46.010;8.946;2023-02-28T14:37:53;13.23;;;9.73;;
19595;SDS011;9945;46.010;8.946;2023-02-28T14:40:22;10.63;;;9.73;;
19595;SDS011;9945;46.010;8.946;2023-02-28T14:42:56;11.17;;;10.17;;
19595;SDS011;9945;46.010;8.946;2023-02-28T14:45:26;10.50;;;9.70;;
19595;SDS011;9945;46.010;8.946;2023-02-28T14:47:57;9.47;;;8.77;;
19595;SDS011;9945;46.010;8.946;2023-02-28T14:50:26;10.40;;;9.60;;
19595;SDS011;9945;46.010;8.946;2023-02-28T14:52:56;10.93;;;9.93;;
19595;SDS011;9945;46.010;8.946;2023-02-28T14:55:24;10.43;;;9.37;;
19595;SDS011;9945;46.010;8.946;2023-02-28T14:57:54;11.87;;;10.30;;
19595;SDS011;9945;46.010;8.946;2023-02-28T15:00:22;10.40;;;9.50;;
19595;SDS011;9945;46.010;8.946;2023-02-28T15:02:51;10.37;;;9.47;;
19595;SDS011;9945;46.010;8.946;2023-02-28T15:05:22;10.83;;;9.47;;
19595;SDS011;9945;46.010;8.946;2023-02-28T15:08:00;10.57;;;9.60;;
19595;SDS011;9945;46.010;8.946;2023-02-28T15:10:29;10.90;;;10.00;;
19595;SDS011;9945;46.010;8.946;2023-02-28T15:12:57;10.70;;;9.73;;
19595;SDS011;9945;46.010;8.946;2023-02-28T15:15:27;9.70;;;8.90;;
19595;SDS011;9945;46.010;8.946;2023-02-28T15:18:06;10.47;;;9.50;;
19595;SDS011;9945;46.010;8.946;2023-02-28T15:20:38;10.80;;;9.87;;
19595;SDS011;9945;46.010;8.946;2023-02-28T15:23:07;12.90;;;9.20;;
19595;SDS011;9945;46.010;8.946;2023-02-28T15:25:35;9.73;;;8.83;;
19595;SDS011;9945;46.010;8.946;2023-02-28T15:28:02;10.13;;;9.13;;
19595;SDS011;9945;46.010;8.946;2023-02-28T15:30:29;9.37;;;8.57;;
19595;SDS011;9945;46.010;8.946;2023-02-28T15:33:05;11.40;;;10.23;;
19595;SDS011;9945;46.010;8.946;2023-02-28T15:35:45;11.20;;;10.20;;
19595;SDS011;9945;46.010;8.946;2023-02-28T15:38:15;11.00;;;10.00;;
19595;SDS011;9945;46.010;8.946;2023-02-28T15:40:45;10.27;;;9.37;;
19595;SDS011;9945;46.010;8.946;2023-02-28T15:43:22;10.67;;;9.77;;
19595;SDS011;9945;46.010;8.946;2023-02-28T15:45:51;10.40;;;9.50;;